aviador You're here:

OIZH Decoded Metar

ZAHEDAN in IRAN
Report Time2017-10-20 12:00:00
UTC Time2017-10-20 12:21:25
Flight Rules vfr VFR
Wind010° at 08 kt
W.Decomp.*RWY 35: 7.6 kt HW 2.6 kt RCW
W.Rank010° ranks 1
Current wind is below 010° avg. (8.2)
Visibility9999 m
Phenomena:N/A
Clouds:N/A
Expected CloudBase > 12,800 ft AGL from Temp-Dew spread
CeilingNone
Temp27°C (ISA +21)
Dew Point-5°C (12% RH)
Heat Index25.9°C
AAT21.5°C
QNH1018 hPa
Density Alt6,768 ft
Elevation4,495 ft
Report Wrong Elevation
Raw Report
METAR OIZH 201200Z 01008KT CAVOK 27/M05 Q1018 A3008 NOSIG=

Extra information for OIZH:More info

Metar Taf Metar & Taf Last 4 Metars F.Rules Stats Wind Profile Meteogram Temp Stats Airport Information Weather charts Add Link Nearby VenuesMetar ALERT Operation Metar Decoded Social comments